createdAt,value
2019-02-18T00:03:12.701Z,29.15
2019-02-18T00:08:20.944Z,29.89
2019-02-18T00:13:29.164Z,27.56
2019-02-18T00:18:37.524Z,28.90
2019-02-18T00:23:45.716Z,28.56
2019-02-18T00:28:54.158Z,27.53
2019-02-18T00:34:02.585Z,28.34
2019-02-18T00:39:10.649Z,28.46
2019-02-18T00:44:18.741Z,29.37
2019-02-18T00:49:26.954Z,27.88
2019-02-18T00:54:35.189Z,27.39
2019-02-18T00:59:43.384Z,27.28
2019-02-18T01:04:51.676Z,27.38
2019-02-18T01:09:59.924Z,26.74
2019-02-18T01:15:08.066Z,27.17
2019-02-18T01:20:16.198Z,26.88
2019-02-18T01:25:24.708Z,26.40
2019-02-18T01:30:33.122Z,27.16
2019-02-18T01:35:41.284Z,26.13
2019-02-18T01:40:49.667Z,27.62
2019-02-18T01:45:57.864Z,27.34
2019-02-18T01:51:06.271Z,27.71
2019-02-18T01:56:14.733Z,27.00
2019-02-18T02:01:23.135Z,28.26
2019-02-18T02:06:31.109Z,27.85
2019-02-18T02:11:39.285Z,27.08
2019-02-18T02:16:48.661Z,27.44
2019-02-18T02:21:56.874Z,28.47
2019-02-18T02:27:05.324Z,27.99
2019-02-18T02:32:13.445Z,26.87
2019-02-18T02:37:21.785Z,26.29
2019-02-18T02:42:30.112Z,26.18
2019-02-18T02:47:38.305Z,27.53
2019-02-18T02:52:46.461Z,27.73
2019-02-18T02:57:54.749Z,27.64
2019-02-18T03:03:02.870Z,27.74
2019-02-18T03:08:19.872Z,26.72
2019-02-18T03:13:18.677Z,22.43
2019-02-18T03:18:26.880Z,21.47
2019-02-18T03:23:35.082Z,21.45
2019-02-18T03:28:43.214Z,19.91
2019-02-18T03:33:51.455Z,20.72
2019-02-18T03:38:59.622Z,21.10
2019-02-18T03:44:07.773Z,20.13
2019-02-18T03:49:15.894Z,20.13
2019-02-18T03:54:24.029Z,18.57
2019-02-18T03:59:32.163Z,19.09
2019-02-18T04:04:40.286Z,19.07
2019-02-18T04:09:48.435Z,19.40
2019-02-18T04:14:56.638Z,19.22
2019-02-18T04:20:04.760Z,22.46
2019-02-18T04:25:12.888Z,24.15
2019-02-18T04:30:21.653Z,24.96
2019-02-18T04:35:29.739Z,25.66
2019-02-18T04:40:37.939Z,26.24
2019-02-18T04:45:46.061Z,25.26
2019-02-18T04:50:54.317Z,21.16
2019-02-18T04:56:02.905Z,22.92
2019-02-18T05:01:11.279Z,19.66
2019-02-18T05:06:19.365Z,20.46
2019-02-18T05:11:27.597Z,20.44
2019-02-18T05:16:35.824Z,19.49
2019-02-18T05:21:43.943Z,19.66
2019-02-18T05:26:52.193Z,19.68
2019-02-18T05:32:00.416Z,20.07
2019-02-18T05:37:09.053Z,19.55
2019-02-18T05:42:17.279Z,19.87
2019-02-18T05:47:25.520Z,20.17
2019-02-18T05:52:33.682Z,19.69
2019-02-18T05:57:44.757Z,20.36
2019-02-18T06:02:45.808Z,21.51
2019-02-18T06:07:54.102Z,21.98
2019-02-18T06:13:02.860Z,23.79
2019-02-18T06:18:11.131Z,25.36
2019-02-18T06:23:19.258Z,25.51
2019-02-18T06:28:27.583Z,26.65
2019-02-18T06:33:35.851Z,25.38
2019-02-18T06:38:43.965Z,26.43
2019-02-18T06:43:52.299Z,25.51
2019-02-18T06:49:00.538Z,26.80
2019-02-18T06:54:09.059Z,26.19
2019-02-18T06:59:17.591Z,25.48
2019-02-18T07:04:25.782Z,26.32
2019-02-18T07:09:34.015Z,26.21
2019-02-18T07:14:42.193Z,25.94
2019-02-18T07:19:52.120Z,25.22
2019-02-18T07:25:00.616Z,26.04
2019-02-18T07:30:08.967Z,25.21
2019-02-18T07:35:09.049Z,25.43
2019-02-18T07:40:17.141Z,24.84
2019-02-18T07:45:26.263Z,25.09
2019-02-18T07:50:34.541Z,24.27
2019-02-18T07:55:42.789Z,24.08
2019-02-18T08:26:33.834Z,23.99
2019-02-18T08:36:50.997Z,24.55
2019-02-18T09:17:59.407Z,18.09
2019-02-18T09:23:07.798Z,17.61
2019-02-18T09:28:16.042Z,17.65
2019-02-18T09:33:24.305Z,17.86
2019-02-18T09:38:32.613Z,17.27
2019-02-18T09:43:41.061Z,17.43
2019-02-18T09:48:49.225Z,18.30
2019-02-18T09:53:57.423Z,19.01
2019-02-18T09:59:05.731Z,18.97
2019-02-18T10:04:13.785Z,19.34
2019-02-18T10:09:22.324Z,19.02
2019-02-18T10:14:31.560Z,19.17
2019-02-18T10:19:42.891Z,18.95
2019-02-18T10:24:50.918Z,19.54
2019-02-18T10:29:55.655Z,22.10
2019-02-18T10:35:03.912Z,22.84
2019-02-18T10:40:12.098Z,22.75
2019-02-18T10:45:20.321Z,20.64
2019-02-18T10:50:28.464Z,21.26
2019-02-18T10:55:37.260Z,22.16
2019-02-18T11:00:45.584Z,21.52
2019-02-18T11:05:53.879Z,20.50
2019-02-18T11:11:02.166Z,20.11
2019-02-18T11:16:10.675Z,19.85
2019-02-18T11:21:18.881Z,19.67
2019-02-18T11:26:27.063Z,19.36
2019-02-18T11:31:35.209Z,18.45
2019-02-18T11:36:43.608Z,18.33
2019-02-18T11:41:51.739Z,18.56
2019-02-18T11:46:59.911Z,19.22
2019-02-18T11:52:08.045Z,18.73
2019-02-18T11:57:16.904Z,18.95
2019-02-18T12:02:25.131Z,18.75
2019-02-18T12:07:33.280Z,18.59
2019-02-18T12:12:41.332Z,19.40
2019-02-18T12:17:49.370Z,19.74
2019-02-18T12:22:57.552Z,19.96
2019-02-18T12:28:05.642Z,21.02
2019-02-18T12:33:14.533Z,20.88
2019-02-18T12:38:21.564Z,19.91
2019-02-18T12:43:29.689Z,20.15
2019-02-18T12:48:37.261Z,19.68
2019-02-18T12:53:46.285Z,19.23
2019-02-18T12:58:54.800Z,19.39
2019-02-18T13:04:00.516Z,19.50
2019-02-18T13:09:08.631Z,18.87
2019-02-18T13:14:16.757Z,19.93
2019-02-18T13:19:24.858Z,19.93
2019-02-18T13:24:33.006Z,19.51
2019-02-18T13:29:41.074Z,18.72
2019-02-18T13:34:49.406Z,19.66
2019-02-18T13:39:57.590Z,18.59
2019-02-18T13:45:05.684Z,18.94
2019-02-18T13:50:14.016Z,18.54
2019-02-18T13:55:22.192Z,18.76
2019-02-18T14:00:30.947Z,18.56
2019-02-18T14:05:37.866Z,18.91
2019-02-18T14:10:45.958Z,18.08
2019-02-18T14:15:54.141Z,19.43
2019-02-18T14:21:02.265Z,20.37
2019-02-18T14:26:10.402Z,19.46
2019-02-18T14:31:18.602Z,19.70
2019-02-18T14:36:26.758Z,19.44
2019-02-18T14:41:34.893Z,19.00
2019-02-18T14:46:43.485Z,19.12
2019-02-18T14:51:51.611Z,18.44
2019-02-18T14:56:59.997Z,18.32
2019-02-18T15:02:08.203Z,18.05
2019-02-18T15:07:16.758Z,18.24
2019-02-18T15:12:32.760Z,17.50
2019-02-18T15:17:32.658Z,18.15
2019-02-18T15:22:40.777Z,17.84
2019-02-18T15:27:48.953Z,17.95
2019-02-18T15:32:57.158Z,18.00
2019-02-18T15:38:06.426Z,17.93
2019-02-18T15:43:14.657Z,17.93
2019-02-18T15:48:22.874Z,17.60
2019-02-18T15:53:31.020Z,17.56
2019-02-18T15:58:39.433Z,17.17
2019-02-18T16:03:47.907Z,17.57
2019-02-18T16:08:56.568Z,17.06
2019-02-18T16:14:11.303Z,16.65
2019-02-18T16:19:09.481Z,16.28
2019-02-18T16:24:19.893Z,16.78
2019-02-18T16:29:25.394Z,17.41
2019-02-18T16:34:33.548Z,17.05
2019-02-18T16:39:41.694Z,17.92
2019-02-18T16:44:49.913Z,17.08
2019-02-18T16:49:58.188Z,17.33
2019-02-18T16:55:06.325Z,18.20
2019-02-18T17:00:14.446Z,18.48
2019-02-18T17:05:23.922Z,17.71
2019-02-18T17:10:32.205Z,18.05
2019-02-18T17:15:40.356Z,17.91
2019-02-18T17:20:48.421Z,18.30
2019-02-18T17:25:56.607Z,17.28
2019-02-18T17:31:04.769Z,18.25
2019-02-18T17:36:12.958Z,17.48
2019-02-18T17:41:21.083Z,17.56
2019-02-18T17:46:29.227Z,17.15
2019-02-18T17:51:37.382Z,17.16
2019-02-18T17:56:45.825Z,17.84
2019-02-18T18:01:53.977Z,17.58
2019-02-18T18:07:02.558Z,17.18
2019-02-18T18:12:12.489Z,18.03
2019-02-18T18:17:20.777Z,17.96
2019-02-18T18:22:28.930Z,18.36
2019-02-18T18:27:37.268Z,18.49
2019-02-18T18:32:45.426Z,18.70
2019-02-18T18:37:53.634Z,19.37
2019-02-18T18:43:01.986Z,18.93
2019-02-18T18:48:10.145Z,18.29
2019-02-18T18:53:18.340Z,18.32
2019-02-18T18:58:26.460Z,18.85
2019-02-18T19:03:34.584Z,17.97
2019-02-18T19:08:42.811Z,17.85
2019-02-18T19:13:51.012Z,18.74
2019-02-18T19:18:59.174Z,17.97
2019-02-18T19:24:07.333Z,19.21
2019-02-18T19:29:15.862Z,18.13
2019-02-18T19:34:23.265Z,18.06
2019-02-18T19:39:31.448Z,18.95
2019-02-18T19:44:39.565Z,18.54
2019-02-18T19:49:48.180Z,18.00
2019-02-18T19:54:56.334Z,18.58
2019-02-18T20:00:04.678Z,17.90
2019-02-18T20:05:12.701Z,18.52
2019-02-18T20:10:20.933Z,18.57
2019-02-18T20:15:29.052Z,17.80
2019-02-18T20:20:37.417Z,18.28
2019-02-18T20:25:45.951Z,18.98
2019-02-18T20:30:54.144Z,19.18
2019-02-18T20:36:03.021Z,19.57
2019-02-18T20:41:11.197Z,19.87
2019-02-18T20:46:20.671Z,21.44
2019-02-18T20:51:28.901Z,18.02
2019-02-18T20:56:37.024Z,17.57
2019-02-18T21:01:45.302Z,17.91
2019-02-18T21:06:53.539Z,18.17
2019-02-18T21:12:01.730Z,18.14
2019-02-18T21:17:10.450Z,17.34
2019-02-18T21:22:18.554Z,18.06
2019-02-18T21:27:26.921Z,17.92
2019-02-18T21:32:35.214Z,17.91
2019-02-18T21:37:43.225Z,18.58
2019-02-18T21:42:51.312Z,17.77
2019-02-18T21:47:59.662Z,17.18
2019-02-18T21:58:16.530Z,17.67
2019-02-18T22:03:24.569Z,17.26
2019-02-18T22:08:32.715Z,18.00
2019-02-18T22:18:49.497Z,17.96
2019-02-18T22:23:57.698Z,18.77
2019-02-18T22:29:05.893Z,18.61
2019-02-18T22:34:14.056Z,19.42
2019-02-18T22:39:22.204Z,19.98
2019-02-18T23:05:04.680Z,18.69
2019-02-18T23:10:12.875Z,17.64
2019-02-18T23:15:21.041Z,18.04
2019-02-18T23:25:37.482Z,19.29
2019-02-18T23:35:53.604Z,18.08
